sensor_id;sensor_type;location;lat;lon;timestamp;P1;durP1;ratioP1;P2;durP2;ratioP2
68812;SDS011;55808;48.112;11.552;2022-09-09T00:04:42;35.20;;;33.10;;
68812;SDS011;55808;48.112;11.552;2022-09-09T00:07:39;39.23;;;36.90;;
68812;SDS011;55808;48.112;11.552;2022-09-09T00:10:22;37.87;;;35.37;;
68812;SDS011;55808;48.112;11.552;2022-09-09T00:12:55;38.33;;;36.10;;
68812;SDS011;55808;48.112;11.552;2022-09-09T00:21:13;35.00;;;32.63;;
68812;SDS011;55808;48.112;11.552;2022-09-09T00:23:47;34.03;;;32.10;;
68812;SDS011;55808;48.112;11.552;2022-09-09T00:31:37;34.87;;;33.00;;
68812;SDS011;55808;48.112;11.552;2022-09-09T00:34:05;35.67;;;33.77;;
68812;SDS011;55808;48.112;11.552;2022-09-09T00:36:41;36.73;;;34.80;;
68812;SDS011;55808;48.112;11.552;2022-09-09T00:39:10;38.50;;;36.00;;
68812;SDS011;55808;48.112;11.552;2022-09-09T00:42:04;36.57;;;34.43;;
68812;SDS011;55808;48.112;11.552;2022-09-09T00:44:56;35.27;;;33.47;;
68812;SDS011;55808;48.112;11.552;2022-09-09T00:58:42;37.90;;;35.20;;
68812;SDS011;55808;48.112;11.552;2022-09-09T01:01:15;34.67;;;32.93;;
68812;SDS011;55808;48.112;11.552;2022-09-09T01:03:49;37.83;;;35.30;;
68812;SDS011;55808;48.112;11.552;2022-09-09T01:06:36;35.63;;;33.33;;
68812;SDS011;55808;48.112;11.552;2022-09-09T01:12:23;37.07;;;34.83;;
68812;SDS011;55808;48.112;11.552;2022-09-09T01:14:54;36.07;;;34.00;;
68812;SDS011;55808;48.112;11.552;2022-09-09T01:28:10;36.13;;;33.63;;
68812;SDS011;55808;48.112;11.552;2022-09-09T01:30:41;36.27;;;34.07;;
68812;SDS011;55808;48.112;11.552;2022-09-09T01:33:10;37.70;;;35.20;;
68812;SDS011;55808;48.112;11.552;2022-09-09T01:35:45;35.93;;;33.80;;
68812;SDS011;55808;48.112;11.552;2022-09-09T01:38:15;35.47;;;33.40;;
68812;SDS011;55808;48.112;11.552;2022-09-09T01:40:42;36.60;;;34.50;;
68812;SDS011;55808;48.112;11.552;2022-09-09T01:43:10;35.30;;;33.27;;
68812;SDS011;55808;48.112;11.552;2022-09-09T01:45:36;39.27;;;36.40;;
68812;SDS011;55808;48.112;11.552;2022-09-09T01:48:03;39.40;;;36.60;;
68812;SDS011;55808;48.112;11.552;2022-09-09T01:50:29;36.57;;;34.37;;
68812;SDS011;55808;48.112;11.552;2022-09-09T01:52:56;36.20;;;34.60;;
68812;SDS011;55808;48.112;11.552;2022-09-09T01:55:28;36.17;;;34.30;;
68812;SDS011;55808;48.112;11.552;2022-09-09T02:00:38;36.20;;;34.03;;
68812;SDS011;55808;48.112;11.552;2022-09-09T02:09:04;35.63;;;33.70;;
68812;SDS011;55808;48.112;11.552;2022-09-09T02:11:31;35.87;;;33.67;;
68812;SDS011;55808;48.112;11.552;2022-09-09T02:14:01;36.00;;;33.80;;
68812;SDS011;55808;48.112;11.552;2022-09-09T02:16:39;37.30;;;35.40;;
68812;SDS011;55808;48.112;11.552;2022-09-09T02:19:14;36.57;;;34.67;;
68812;SDS011;55808;48.112;11.552;2022-09-09T02:21:52;35.93;;;34.03;;
68812;SDS011;55808;48.112;11.552;2022-09-09T02:24:20;36.00;;;33.87;;
68812;SDS011;55808;48.112;11.552;2022-09-09T02:26:47;36.10;;;34.00;;
68812;SDS011;55808;48.112;11.552;2022-09-09T02:29:22;35.93;;;34.17;;
68812;SDS011;55808;48.112;11.552;2022-09-09T02:31:52;36.00;;;34.20;;
68812;SDS011;55808;48.112;11.552;2022-09-09T02:34:20;33.13;;;31.43;;
68812;SDS011;55808;48.112;11.552;2022-09-09T02:36:49;35.83;;;33.97;;
68812;SDS011;55808;48.112;11.552;2022-09-09T02:39:18;34.87;;;33.03;;
68812;SDS011;55808;48.112;11.552;2022-09-09T02:41:43;35.30;;;33.20;;
68812;SDS011;55808;48.112;11.552;2022-09-09T02:44:10;35.33;;;33.47;;
68812;SDS011;55808;48.112;11.552;2022-09-09T02:55:46;36.70;;;34.40;;
68812;SDS011;55808;48.112;11.552;2022-09-09T02:58:15;37.87;;;35.43;;
68812;SDS011;55808;48.112;11.552;2022-09-09T03:00:43;37.00;;;34.70;;
68812;SDS011;55808;48.112;11.552;2022-09-09T03:03:13;36.00;;;34.40;;
68812;SDS011;55808;48.112;11.552;2022-09-09T03:05:41;35.43;;;33.60;;
68812;SDS011;55808;48.112;11.552;2022-09-09T03:08:07;34.17;;;32.33;;
68812;SDS011;55808;48.112;11.552;2022-09-09T03:10:33;35.80;;;34.00;;
68812;SDS011;55808;48.112;11.552;2022-09-09T03:12:59;36.40;;;34.53;;
68812;SDS011;55808;48.112;11.552;2022-09-09T03:15:25;35.67;;;34.17;;
68812;SDS011;55808;48.112;11.552;2022-09-09T03:17:56;34.33;;;32.50;;
68812;SDS011;55808;48.112;11.552;2022-09-09T03:20:22;34.53;;;33.10;;
68812;SDS011;55808;48.112;11.552;2022-09-09T03:22:51;36.37;;;34.57;;
68812;SDS011;55808;48.112;11.552;2022-09-09T03:25:17;33.37;;;32.07;;
68812;SDS011;55808;48.112;11.552;2022-09-09T03:27:43;34.10;;;32.17;;
68812;SDS011;55808;48.112;11.552;2022-09-09T03:30:09;35.40;;;33.77;;
68812;SDS011;55808;48.112;11.552;2022-09-09T03:32:36;36.17;;;34.07;;
68812;SDS011;55808;48.112;11.552;2022-09-09T03:35:02;33.67;;;32.00;;
68812;SDS011;55808;48.112;11.552;2022-09-09T03:37:28;34.83;;;33.20;;
68812;SDS011;55808;48.112;11.552;2022-09-09T03:39:53;35.10;;;33.53;;
68812;SDS011;55808;48.112;11.552;2022-09-09T03:42:19;34.30;;;32.27;;
68812;SDS011;55808;48.112;11.552;2022-09-09T03:44:45;33.87;;;32.47;;
68812;SDS011;55808;48.112;11.552;2022-09-09T03:47:15;33.77;;;32.37;;
68812;SDS011;55808;48.112;11.552;2022-09-09T03:49:42;35.70;;;33.93;;
68812;SDS011;55808;48.112;11.552;2022-09-09T03:52:08;35.37;;;33.77;;
68812;SDS011;55808;48.112;11.552;2022-09-09T03:54:34;33.93;;;32.43;;
68812;SDS011;55808;48.112;11.552;2022-09-09T03:57:00;35.30;;;33.43;;
68812;SDS011;55808;48.112;11.552;2022-09-09T03:59:27;34.30;;;32.90;;
68812;SDS011;55808;48.112;11.552;2022-09-09T04:01:53;33.97;;;32.60;;
68812;SDS011;55808;48.112;11.552;2022-09-09T04:04:24;33.30;;;31.43;;
68812;SDS011;55808;48.112;11.552;2022-09-09T04:06:51;32.13;;;30.83;;
68812;SDS011;55808;48.112;11.552;2022-09-09T04:09:17;34.23;;;32.83;;
68812;SDS011;55808;48.112;11.552;2022-09-09T04:11:43;32.73;;;31.33;;
68812;SDS011;55808;48.112;11.552;2022-09-09T04:14:10;34.33;;;32.83;;
68812;SDS011;55808;48.112;11.552;2022-09-09T04:16:35;36.23;;;34.37;;
68812;SDS011;55808;48.112;11.552;2022-09-09T04:19:02;34.10;;;32.43;;
68812;SDS011;55808;48.112;11.552;2022-09-09T04:21:32;34.30;;;32.20;;
68812;SDS011;55808;48.112;11.552;2022-09-09T04:23:58;34.80;;;33.20;;
68812;SDS011;55808;48.112;11.552;2022-09-09T04:26:24;35.20;;;33.53;;
68812;SDS011;55808;48.112;11.552;2022-09-09T04:28:49;35.30;;;33.60;;
68812;SDS011;55808;48.112;11.552;2022-09-09T04:31:21;34.60;;;32.90;;
68812;SDS011;55808;48.112;11.552;2022-09-09T04:33:49;34.60;;;32.77;;
68812;SDS011;55808;48.112;11.552;2022-09-09T04:36:15;34.60;;;32.87;;
68812;SDS011;55808;48.112;11.552;2022-09-09T04:38:41;34.97;;;32.73;;
68812;SDS011;55808;48.112;11.552;2022-09-09T04:41:06;34.70;;;32.80;;
68812;SDS011;55808;48.112;11.552;2022-09-09T04:43:32;34.80;;;32.67;;
68812;SDS011;55808;48.112;11.552;2022-09-09T04:46:00;34.37;;;32.67;;
68812;SDS011;55808;48.112;11.552;2022-09-09T04:48:26;32.70;;;31.00;;
68812;SDS011;55808;48.112;11.552;2022-09-09T04:50:59;33.30;;;31.70;;
68812;SDS011;55808;48.112;11.552;2022-09-09T04:53:29;33.10;;;31.50;;
68812;SDS011;55808;48.112;11.552;2022-09-09T04:56:07;33.40;;;31.90;;
68812;SDS011;55808;48.112;11.552;2022-09-09T04:58:38;36.40;;;33.90;;
68812;SDS011;55808;48.112;11.552;2022-09-09T05:01:07;34.70;;;32.97;;
68812;SDS011;55808;48.112;11.552;2022-09-09T05:03:34;33.20;;;31.57;;
68812;SDS011;55808;48.112;11.552;2022-09-09T05:06:07;34.13;;;32.10;;
68812;SDS011;55808;48.112;11.552;2022-09-09T05:08:39;31.60;;;30.30;;
68812;SDS011;55808;48.112;11.552;2022-09-09T05:11:22;33.63;;;32.03;;
68812;SDS011;55808;48.112;11.552;2022-09-09T05:13:49;33.33;;;31.77;;
68812;SDS011;55808;48.112;11.552;2022-09-09T05:16:15;33.33;;;31.93;;
68812;SDS011;55808;48.112;11.552;2022-09-09T05:18:41;34.80;;;32.63;;
68812;SDS011;55808;48.112;11.552;2022-09-09T05:21:08;34.00;;;32.60;;
68812;SDS011;55808;48.112;11.552;2022-09-09T05:23:34;33.53;;;31.93;;
68812;SDS011;55808;48.112;11.552;2022-09-09T05:26:00;33.40;;;31.83;;
68812;SDS011;55808;48.112;11.552;2022-09-09T05:28:27;35.67;;;33.77;;
68812;SDS011;55808;48.112;11.552;2022-09-09T05:30:59;35.10;;;33.33;;
68812;SDS011;55808;48.112;11.552;2022-09-09T05:33:28;33.13;;;31.40;;
68812;SDS011;55808;48.112;11.552;2022-09-09T05:35:58;34.43;;;32.93;;
68812;SDS011;55808;48.112;11.552;2022-09-09T05:38:24;32.77;;;31.13;;
68812;SDS011;55808;48.112;11.552;2022-09-09T05:40:51;33.10;;;31.57;;
68812;SDS011;55808;48.112;11.552;2022-09-09T05:43:17;33.10;;;31.70;;
68812;SDS011;55808;48.112;11.552;2022-09-09T05:45:45;33.00;;;31.50;;
68812;SDS011;55808;48.112;11.552;2022-09-09T05:48:12;34.20;;;32.50;;
68812;SDS011;55808;48.112;11.552;2022-09-09T05:50:42;34.13;;;32.67;;
68812;SDS011;55808;48.112;11.552;2022-09-09T05:53:08;31.87;;;30.60;;
68812;SDS011;55808;48.112;11.552;2022-09-09T05:55:35;33.30;;;31.90;;
68812;SDS011;55808;48.112;11.552;2022-09-09T05:58:01;34.53;;;32.87;;
68812;SDS011;55808;48.112;11.552;2022-09-09T06:00:27;35.40;;;33.50;;
68812;SDS011;55808;48.112;11.552;2022-09-09T06:02:54;34.77;;;32.67;;
68812;SDS011;55808;48.112;11.552;2022-09-09T06:05:20;35.23;;;33.30;;
68812;SDS011;55808;48.112;11.552;2022-09-09T06:07:47;34.90;;;33.07;;
68812;SDS011;55808;48.112;11.552;2022-09-09T06:10:13;34.90;;;33.03;;
68812;SDS011;55808;48.112;11.552;2022-09-09T06:12:39;35.33;;;33.57;;
68812;SDS011;55808;48.112;11.552;2022-09-09T06:15:05;34.70;;;32.80;;
68812;SDS011;55808;48.112;11.552;2022-09-09T06:17:31;36.43;;;34.60;;
68812;SDS011;55808;48.112;11.552;2022-09-09T06:19:56;34.50;;;32.60;;
68812;SDS011;55808;48.112;11.552;2022-09-09T06:22:22;36.33;;;34.10;;
68812;SDS011;55808;48.112;11.552;2022-09-09T06:24:48;35.00;;;33.20;;
68812;SDS011;55808;48.112;11.552;2022-09-09T06:27:13;34.37;;;32.97;;
68812;SDS011;55808;48.112;11.552;2022-09-09T06:29:39;33.47;;;31.80;;
68812;SDS011;55808;48.112;11.552;2022-09-09T06:32:05;34.47;;;32.33;;
68812;SDS011;55808;48.112;11.552;2022-09-09T06:34:33;34.20;;;32.43;;
68812;SDS011;55808;48.112;11.552;2022-09-09T06:37:00;33.77;;;32.17;;
68812;SDS011;55808;48.112;11.552;2022-09-09T06:39:26;34.87;;;33.03;;
68812;SDS011;55808;48.112;11.552;2022-09-09T06:41:51;35.03;;;33.17;;
68812;SDS011;55808;48.112;11.552;2022-09-09T06:44:18;34.40;;;32.87;;
68812;SDS011;55808;48.112;11.552;2022-09-09T06:46:44;35.83;;;34.13;;
68812;SDS011;55808;48.112;11.552;2022-09-09T06:49:12;34.37;;;32.70;;
68812;SDS011;55808;48.112;11.552;2022-09-09T06:51:40;35.33;;;33.57;;
68812;SDS011;55808;48.112;11.552;2022-09-09T06:54:07;35.17;;;33.40;;
68812;SDS011;55808;48.112;11.552;2022-09-09T06:56:35;33.87;;;32.30;;
68812;SDS011;55808;48.112;11.552;2022-09-09T06:59:03;36.67;;;34.57;;
68812;SDS011;55808;48.112;11.552;2022-09-09T07:01:33;34.83;;;32.93;;
68812;SDS011;55808;48.112;11.552;2022-09-09T07:04:00;35.90;;;34.00;;
68812;SDS011;55808;48.112;11.552;2022-09-09T07:06:28;34.17;;;32.20;;
68812;SDS011;55808;48.112;11.552;2022-09-09T07:08:56;33.77;;;32.07;;
68812;SDS011;55808;48.112;11.552;2022-09-09T07:11:50;34.43;;;32.50;;
68812;SDS011;55808;48.112;11.552;2022-09-09T07:14:17;34.30;;;32.57;;
68812;SDS011;55808;48.112;11.552;2022-09-09T07:16:44;34.67;;;33.17;;
68812;SDS011;55808;48.112;11.552;2022-09-09T07:19:12;34.80;;;33.30;;
68812;SDS011;55808;48.112;11.552;2022-09-09T07:21:39;34.53;;;32.93;;
68812;SDS011;55808;48.112;11.552;2022-09-09T07:24:05;35.63;;;33.90;;
68812;SDS011;55808;48.112;11.552;2022-09-09T07:26:36;36.27;;;33.43;;
68812;SDS011;55808;48.112;11.552;2022-09-09T07:29:02;36.73;;;34.63;;
68812;SDS011;55808;48.112;11.552;2022-09-09T07:31:33;36.10;;;34.37;;
68812;SDS011;55808;48.112;11.552;2022-09-09T07:34:01;36.83;;;34.87;;
68812;SDS011;55808;48.112;11.552;2022-09-09T07:36:30;36.60;;;34.70;;
68812;SDS011;55808;48.112;11.552;2022-09-09T07:39:03;35.40;;;33.70;;
68812;SDS011;55808;48.112;11.552;2022-09-09T07:44:07;37.37;;;35.33;;
68812;SDS011;55808;48.112;11.552;2022-09-09T07:46:43;37.00;;;35.30;;
68812;SDS011;55808;48.112;11.552;2022-09-09T07:49:10;36.03;;;34.30;;
68812;SDS011;55808;48.112;11.552;2022-09-09T07:51:40;37.33;;;35.47;;
68812;SDS011;55808;48.112;11.552;2022-09-09T07:54:09;34.80;;;33.30;;
68812;SDS011;55808;48.112;11.552;2022-09-09T07:56:37;36.73;;;35.10;;
68812;SDS011;55808;48.112;11.552;2022-09-09T07:59:04;37.67;;;35.77;;
68812;SDS011;55808;48.112;11.552;2022-09-09T08:01:34;38.90;;;36.17;;
68812;SDS011;55808;48.112;11.552;2022-09-09T08:04:15;36.17;;;34.53;;
68812;SDS011;55808;48.112;11.552;2022-09-09T08:06:43;37.43;;;35.60;;
68812;SDS011;55808;48.112;11.552;2022-09-09T08:09:14;38.27;;;36.30;;
68812;SDS011;55808;48.112;11.552;2022-09-09T08:11:41;38.30;;;36.40;;
68812;SDS011;55808;48.112;11.552;2022-09-09T08:14:07;36.53;;;34.93;;
68812;SDS011;55808;48.112;11.552;2022-09-09T08:16:35;38.00;;;36.07;;
68812;SDS011;55808;48.112;11.552;2022-09-09T08:19:03;37.03;;;35.63;;
68812;SDS011;55808;48.112;11.552;2022-09-09T08:21:32;37.60;;;35.90;;
68812;SDS011;55808;48.112;11.552;2022-09-09T08:24:00;39.53;;;37.67;;
68812;SDS011;55808;48.112;11.552;2022-09-09T08:26:27;38.73;;;36.80;;
68812;SDS011;55808;48.112;11.552;2022-09-09T08:28:55;37.37;;;35.27;;
68812;SDS011;55808;48.112;11.552;2022-09-09T08:31:23;37.67;;;35.97;;
68812;SDS011;55808;48.112;11.552;2022-09-09T08:33:50;38.83;;;37.03;;
68812;SDS011;55808;48.112;11.552;2022-09-09T08:36:17;40.20;;;38.07;;
68812;SDS011;55808;48.112;11.552;2022-09-09T08:38:48;37.17;;;35.33;;
68812;SDS011;55808;48.112;11.552;2022-09-09T08:44:12;38.23;;;36.33;;
68812;SDS011;55808;48.112;11.552;2022-09-09T08:46:44;37.73;;;36.13;;
68812;SDS011;55808;48.112;11.552;2022-09-09T08:52:23;39.43;;;37.17;;
68812;SDS011;55808;48.112;11.552;2022-09-09T08:54:52;39.10;;;36.70;;
68812;SDS011;55808;48.112;11.552;2022-09-09T08:57:23;38.87;;;36.80;;
68812;SDS011;55808;48.112;11.552;2022-09-09T08:59:52;39.40;;;37.50;;
68812;SDS011;55808;48.112;11.552;2022-09-09T09:02:25;38.97;;;37.10;;
68812;SDS011;55808;48.112;11.552;2022-09-09T09:05:23;36.67;;;34.93;;
68812;SDS011;55808;48.112;11.552;2022-09-09T09:08:14;37.17;;;35.47;;
68812;SDS011;55808;48.112;11.552;2022-09-09T09:10:58;36.57;;;34.80;;
68812;SDS011;55808;48.112;11.552;2022-09-09T09:18:37;40.10;;;37.63;;
68812;SDS011;55808;48.112;11.552;2022-09-09T09:21:13;38.90;;;36.90;;
68812;SDS011;55808;48.112;11.552;2022-09-09T09:24:04;37.50;;;36.00;;
68812;SDS011;55808;48.112;11.552;2022-09-09T09:26:33;38.87;;;37.27;;
68812;SDS011;55808;48.112;11.552;2022-09-09T09:29:01;39.50;;;37.70;;
68812;SDS011;55808;48.112;11.552;2022-09-09T09:31:38;37.53;;;35.90;;
68812;SDS011;55808;48.112;11.552;2022-09-09T09:34:03;38.60;;;37.10;;
68812;SDS011;55808;48.112;11.552;2022-09-09T09:39:06;41.13;;;39.03;;
68812;SDS011;55808;48.112;11.552;2022-09-09T09:41:36;37.27;;;35.67;;
68812;SDS011;55808;48.112;11.552;2022-09-09T09:44:05;39.67;;;37.97;;
68812;SDS011;55808;48.112;11.552;2022-09-09T09:46:46;39.93;;;38.03;;
68812;SDS011;55808;48.112;11.552;2022-09-09T09:49:12;44.83;;;42.93;;
68812;SDS011;55808;48.112;11.552;2022-09-09T09:51:38;40.67;;;38.63;;
68812;SDS011;55808;48.112;11.552;2022-09-09T09:56:44;42.83;;;40.40;;
68812;SDS011;55808;48.112;11.552;2022-09-09T10:04:42;40.50;;;38.80;;
68812;SDS011;55808;48.112;11.552;2022-09-09T10:07:15;40.60;;;38.80;;
68812;SDS011;55808;48.112;11.552;2022-09-09T10:09:48;43.20;;;40.73;;
68812;SDS011;55808;48.112;11.552;2022-09-09T10:18:08;39.63;;;37.83;;
68812;SDS011;55808;48.112;11.552;2022-09-09T10:20:46;36.77;;;35.27;;
68812;SDS011;55808;48.112;11.552;2022-09-09T10:40:33;39.63;;;37.40;;
68812;SDS011;55808;48.112;11.552;2022-09-09T10:43:07;40.77;;;38.47;;
68812;SDS011;55808;48.112;11.552;2022-09-09T10:48:21;39.50;;;37.33;;
68812;SDS011;55808;48.112;11.552;2022-09-09T10:53:44;38.33;;;36.17;;
68812;SDS011;55808;48.112;11.552;2022-09-09T10:56:18;38.23;;;36.50;;
68812;SDS011;55808;48.112;11.552;2022-09-09T11:01:22;38.47;;;36.33;;
68812;SDS011;55808;48.112;11.552;2022-09-09T11:03:55;39.20;;;37.47;;
68812;SDS011;55808;48.112;11.552;2022-09-09T11:06:39;41.40;;;39.07;;
68812;SDS011;55808;48.112;11.552;2022-09-09T11:09:19;40.00;;;38.30;;
68812;SDS011;55808;48.112;11.552;2022-09-09T11:11:56;41.10;;;39.07;;
68812;SDS011;55808;48.112;11.552;2022-09-09T11:14:40;40.23;;;38.23;;
68812;SDS011;55808;48.112;11.552;2022-09-09T11:17:14;38.77;;;37.17;;
68812;SDS011;55808;48.112;11.552;2022-09-09T11:19:43;41.33;;;39.37;;
68812;SDS011;55808;48.112;11.552;2022-09-09T11:22:15;42.30;;;40.57;;
68812;SDS011;55808;48.112;11.552;2022-09-09T11:36:10;43.27;;;41.37;;
68812;SDS011;55808;48.112;11.552;2022-09-09T11:38:46;44.50;;;42.10;;
68812;SDS011;55808;48.112;11.552;2022-09-09T11:41:12;43.00;;;41.27;;
68812;SDS011;55808;48.112;11.552;2022-09-09T11:43:47;43.87;;;41.70;;
68812;SDS011;55808;48.112;11.552;2022-09-09T11:46:19;43.73;;;41.93;;
68812;SDS011;55808;48.112;11.552;2022-09-09T11:48:58;44.80;;;42.67;;
68812;SDS011;55808;48.112;11.552;2022-09-09T11:51:26;43.80;;;41.90;;
68812;SDS011;55808;48.112;11.552;2022-09-09T11:53:55;43.13;;;41.23;;
68812;SDS011;55808;48.112;11.552;2022-09-09T11:56:34;45.10;;;42.80;;
68812;SDS011;55808;48.112;11.552;2022-09-09T11:59:19;43.53;;;41.47;;
68812;SDS011;55808;48.112;11.552;2022-09-09T12:04:54;43.80;;;41.80;;
68812;SDS011;55808;48.112;11.552;2022-09-09T12:07:32;42.37;;;40.47;;
68812;SDS011;55808;48.112;11.552;2022-09-09T12:12:34;43.60;;;41.60;;
68812;SDS011;55808;48.112;11.552;2022-09-09T12:17:43;43.37;;;41.13;;
68812;SDS011;55808;48.112;11.552;2022-09-09T12:20:15;42.07;;;40.23;;
68812;SDS011;55808;48.112;11.552;2022-09-09T12:31:21;42.23;;;39.97;;
68812;SDS011;55808;48.112;11.552;2022-09-09T12:34:15;43.50;;;41.00;;
68812;SDS011;55808;48.112;11.552;2022-09-09T12:36:51;42.03;;;40.13;;
68812;SDS011;55808;48.112;11.552;2022-09-09T12:39:36;45.73;;;43.10;;
68812;SDS011;55808;48.112;11.552;2022-09-09T12:42:15;43.73;;;41.73;;
68812;SDS011;55808;48.112;11.552;2022-09-09T12:44:50;43.93;;;41.53;;
68812;SDS011;55808;48.112;11.552;2022-09-09T12:47:39;43.40;;;41.50;;
68812;SDS011;55808;48.112;11.552;2022-09-09T12:50:44;44.63;;;42.40;;
68812;SDS011;55808;48.112;11.552;2022-09-09T12:53:16;46.20;;;43.70;;
68812;SDS011;55808;48.112;11.552;2022-09-09T12:55:52;45.20;;;43.10;;
68812;SDS011;55808;48.112;11.552;2022-09-09T12:58:22;44.83;;;43.03;;
68812;SDS011;55808;48.112;11.552;2022-09-09T13:00:50;44.80;;;42.60;;
68812;SDS011;55808;48.112;11.552;2022-09-09T13:03:18;43.23;;;41.13;;
68812;SDS011;55808;48.112;11.552;2022-09-09T13:05:46;45.70;;;43.63;;
68812;SDS011;55808;48.112;11.552;2022-09-09T13:08:13;45.63;;;43.30;;
68812;SDS011;55808;48.112;11.552;2022-09-09T13:13:15;43.70;;;41.70;;
68812;SDS011;55808;48.112;11.552;2022-09-09T13:15:52;44.20;;;42.23;;
68812;SDS011;55808;48.112;11.552;2022-09-09T13:18:23;42.07;;;40.37;;
68812;SDS011;55808;48.112;11.552;2022-09-09T13:20:53;39.83;;;38.33;;
68812;SDS011;55808;48.112;11.552;2022-09-09T13:23:21;41.53;;;39.83;;
68812;SDS011;55808;48.112;11.552;2022-09-09T13:25:55;41.20;;;39.40;;
68812;SDS011;55808;48.112;11.552;2022-09-09T13:28:23;40.33;;;38.63;;
68812;SDS011;55808;48.112;11.552;2022-09-09T13:30:57;43.70;;;41.40;;
68812;SDS011;55808;48.112;11.552;2022-09-09T13:33:34;42.33;;;40.47;;
68812;SDS011;55808;48.112;11.552;2022-09-09T13:36:05;41.90;;;40.10;;
68812;SDS011;55808;48.112;11.552;2022-09-09T13:38:52;41.63;;;40.13;;
68812;SDS011;55808;48.112;11.552;2022-09-09T13:41:20;40.77;;;39.13;;
68812;SDS011;55808;48.112;11.552;2022-09-09T13:43:49;42.80;;;40.37;;
68812;SDS011;55808;48.112;11.552;2022-09-09T13:46:26;43.60;;;41.17;;
68812;SDS011;55808;48.112;11.552;2022-09-09T13:49:00;39.07;;;37.57;;
68812;SDS011;55808;48.112;11.552;2022-09-09T13:54:04;42.70;;;40.90;;
68812;SDS011;55808;48.112;11.552;2022-09-09T13:56:31;42.07;;;40.27;;
68812;SDS011;55808;48.112;11.552;2022-09-09T13:59:00;42.23;;;40.57;;
68812;SDS011;55808;48.112;11.552;2022-09-09T14:01:27;40.27;;;38.47;;
68812;SDS011;55808;48.112;11.552;2022-09-09T14:03:53;41.27;;;39.53;;
68812;SDS011;55808;48.112;11.552;2022-09-09T14:06:19;41.37;;;39.63;;
68812;SDS011;55808;48.112;11.552;2022-09-09T14:08:46;41.87;;;39.40;;
68812;SDS011;55808;48.112;11.552;2022-09-09T14:11:13;40.30;;;38.50;;
68812;SDS011;55808;48.112;11.552;2022-09-09T14:13:38;41.50;;;39.57;;
68812;SDS011;55808;48.112;11.552;2022-09-09T14:16:07;41.20;;;39.23;;
68812;SDS011;55808;48.112;11.552;2022-09-09T14:18:32;41.30;;;39.70;;
68812;SDS011;55808;48.112;11.552;2022-09-09T14:20:58;40.77;;;38.90;;
68812;SDS011;55808;48.112;11.552;2022-09-09T14:23:24;39.40;;;37.80;;
68812;SDS011;55808;48.112;11.552;2022-09-09T14:25:54;40.13;;;38.33;;
68812;SDS011;55808;48.112;11.552;2022-09-09T14:28:20;41.47;;;39.43;;
68812;SDS011;55808;48.112;11.552;2022-09-09T14:30:45;40.33;;;38.30;;
68812;SDS011;55808;48.112;11.552;2022-09-09T14:33:12;40.70;;;39.00;;
68812;SDS011;55808;48.112;11.552;2022-09-09T14:35:41;40.60;;;38.67;;
68812;SDS011;55808;48.112;11.552;2022-09-09T14:38:08;42.17;;;39.90;;
68812;SDS011;55808;48.112;11.552;2022-09-09T14:40:35;39.70;;;37.90;;
68812;SDS011;55808;48.112;11.552;2022-09-09T14:43:02;41.67;;;39.30;;
68812;SDS011;55808;48.112;11.552;2022-09-09T14:45:31;41.87;;;39.70;;
68812;SDS011;55808;48.112;11.552;2022-09-09T14:47:57;40.40;;;38.67;;
68812;SDS011;55808;48.112;11.552;2022-09-09T14:50:24;39.87;;;38.27;;
68812;SDS011;55808;48.112;11.552;2022-09-09T14:52:49;40.93;;;39.20;;
68812;SDS011;55808;48.112;11.552;2022-09-09T14:55:15;40.27;;;38.40;;
68812;SDS011;55808;48.112;11.552;2022-09-09T14:57:42;40.80;;;38.97;;
68812;SDS011;55808;48.112;11.552;2022-09-09T15:00:08;41.50;;;39.37;;
68812;SDS011;55808;48.112;11.552;2022-09-09T15:02:35;40.10;;;38.33;;
68812;SDS011;55808;48.112;11.552;2022-09-09T15:05:01;39.90;;;38.10;;
68812;SDS011;55808;48.112;11.552;2022-09-09T15:07:29;39.70;;;37.87;;
68812;SDS011;55808;48.112;11.552;2022-09-09T15:09:56;40.80;;;39.00;;
68812;SDS011;55808;48.112;11.552;2022-09-09T15:12:23;38.47;;;36.67;;
68812;SDS011;55808;48.112;11.552;2022-09-09T15:14:49;42.10;;;39.73;;
68812;SDS011;55808;48.112;11.552;2022-09-09T15:17:15;39.50;;;37.77;;
68812;SDS011;55808;48.112;11.552;2022-09-09T15:19:41;40.37;;;38.50;;
68812;SDS011;55808;48.112;11.552;2022-09-09T15:22:07;41.60;;;39.37;;
68812;SDS011;55808;48.112;11.552;2022-09-09T15:24:34;40.30;;;38.50;;
68812;SDS011;55808;48.112;11.552;2022-09-09T15:27:00;42.20;;;39.90;;
68812;SDS011;55808;48.112;11.552;2022-09-09T15:29:26;38.03;;;36.47;;
68812;SDS011;55808;48.112;11.552;2022-09-09T15:31:55;37.67;;;36.17;;
68812;SDS011;55808;48.112;11.552;2022-09-09T15:34:21;39.30;;;37.50;;
68812;SDS011;55808;48.112;11.552;2022-09-09T15:36:47;39.73;;;38.03;;
68812;SDS011;55808;48.112;11.552;2022-09-09T15:39:14;39.57;;;37.57;;
68812;SDS011;55808;48.112;11.552;2022-09-09T15:41:41;39.63;;;37.87;;
68812;SDS011;55808;48.112;11.552;2022-09-09T15:44:08;40.40;;;38.50;;
68812;SDS011;55808;48.112;11.552;2022-09-09T15:46:37;39.93;;;38.00;;
68812;SDS011;55808;48.112;11.552;2022-09-09T15:49:05;39.27;;;37.53;;
68812;SDS011;55808;48.112;11.552;2022-09-09T15:51:39;40.07;;;38.47;;
68812;SDS011;55808;48.112;11.552;2022-09-09T15:54:07;40.70;;;38.90;;
68812;SDS011;55808;48.112;11.552;2022-09-09T15:56:34;40.43;;;38.73;;
68812;SDS011;55808;48.112;11.552;2022-09-09T15:59:00;40.60;;;39.10;;
68812;SDS011;55808;48.112;11.552;2022-09-09T16:01:28;39.80;;;38.30;;
68812;SDS011;55808;48.112;11.552;2022-09-09T16:03:55;40.00;;;38.40;;
68812;SDS011;55808;48.112;11.552;2022-09-09T16:06:22;39.20;;;37.40;;
68812;SDS011;55808;48.112;11.552;2022-09-09T16:08:50;41.40;;;39.57;;
68812;SDS011;55808;48.112;11.552;2022-09-09T16:11:21;39.73;;;37.93;;
68812;SDS011;55808;48.112;11.552;2022-09-09T16:13:49;39.30;;;37.50;;
68812;SDS011;55808;48.112;11.552;2022-09-09T16:16:16;40.27;;;37.97;;
68812;SDS011;55808;48.112;11.552;2022-09-09T16:18:45;40.13;;;38.23;;
68812;SDS011;55808;48.112;11.552;2022-09-09T16:21:17;43.30;;;40.70;;
68812;SDS011;55808;48.112;11.552;2022-09-09T16:23:56;40.57;;;38.77;;
68812;SDS011;55808;48.112;11.552;2022-09-09T16:26:26;40.87;;;39.07;;
68812;SDS011;55808;48.112;11.552;2022-09-09T16:28:53;41.17;;;39.30;;
68812;SDS011;55808;48.112;11.552;2022-09-09T16:31:23;40.80;;;39.20;;
68812;SDS011;55808;48.112;11.552;2022-09-09T16:33:50;41.27;;;39.57;;
68812;SDS011;55808;48.112;11.552;2022-09-09T16:36:18;42.73;;;40.77;;
68812;SDS011;55808;48.112;11.552;2022-09-09T16:38:45;41.67;;;39.83;;
68812;SDS011;55808;48.112;11.552;2022-09-09T16:41:11;42.57;;;40.67;;
68812;SDS011;55808;48.112;11.552;2022-09-09T16:43:39;42.13;;;40.13;;
68812;SDS011;55808;48.112;11.552;2022-09-09T16:46:14;41.30;;;39.37;;
68812;SDS011;55808;48.112;11.552;2022-09-09T16:48:42;41.67;;;39.77;;
68812;SDS011;55808;48.112;11.552;2022-09-09T16:51:15;42.03;;;40.03;;